Clay City, Illinois
Current Conditions -  °F | °C
As of 10:15 AM on Wednesday 28 Jan 2015 (Local Time) from KFOA Reporting Station
Clear Clear  
Wind Chill: 25°   Ceiling: Unl
Heat Index: 34°   Visibility: 10mi
Dew Point: 28°   Wind: 12mph
Humidity: 81%   Direction: 140°SE
Pressure: 30.31"   Gusts: NA
Location:  38.69°N, 88.35°W
Report Text: KFOA 281615Z AUTO 14010KT 10SM CLR 01/M02 A3031 RMK AO2 T00101020
Loading
Personal Weather Stations






























Interactive Weather Map New forecast layout! Learn more

10-Day Weather Forecast

Advertisements
Track Severe Weather on mobile